Nearby METAR Reports

 

LEVC - Valencia (civ/Mi, Spain
Distacia desde Piles: NO 69km
Actu.: 17/11/2018 12:00
Parcialmente nuboso
Parcialmente nuboso
 Viento del NNO
Viento: NNO 9 km/h
Temperatura: 16°C
Rocío: 14°C
Humedad: 88%
Barómetro: 1017 hPa
Clouds: Parcialmente nuboso
Visibility: 10 km
Cloud details: Few Clouds 610 m
Parcialmente nuboso 1829 m
2018/11/17 11:00 LEVC 171100Z 33005KT 300V020 9999 FEW020 SCT060 16/14 Q1017 NOSIG
LEAL - Alicante/El Alte, Spain
Distacia desde Piles: SSO 94km
Actu.: 17/11/2018 12:30
Parcialmente nuboso
Parcialmente nuboso
 Viento del E
Viento: E 6 km/h
Temperatura: 18°C
Rocío: 14°C
Humedad: 78%
Barómetro: 1015 hPa
Clouds: Parcialmente nuboso
Visibility: 10 km
Cloud details: Few Clouds 762 m
Parcialmente nuboso 1981 m
2018/11/17 11:30 LEAL 171130Z 09003KT 050V120 9999 FEW025 SCT065 18/14 Q1015 NOSIG
 
LEIB - Ibiza/Es Codola, Spain
Distacia desde Piles: E 119km
Actu.: 17/11/2018 12:30
Few Clouds
Few Clouds
 Viento del NE
Viento: NE 11 km/h
Temperatura: 19°C
Rocío: 11°C
Humedad: 60%
Barómetro: 1015 hPa
Clouds: Few Clouds
Visibility: 10 km
Cloud details: Few Clouds 549 m
2018/11/17 11:30 LEIB 171130Z 05006KT 350V120 9999 FEW018 19/11 Q1015 NOSIG
LELC - San Javier(Mil/C, Spain
Distacia desde Piles: SSO 154km
Actu.: 17/11/2018 12:30
Lluvia débil, Muy nuboso
Lluvia débil, Muy nuboso
 Viento del NE
Viento: NE 17 km/h
Temperatura: 18°C
Rocío: 16°C
Humedad: 88%
Barómetro: 1015 hPa
Resumen: Lluvia débil
Clouds: Muy nuboso
Visibility: 10 km
Cloud details: Few Clouds 549 m
Few Clouds 914 m
Muy nuboso 1646 m
2018/11/17 11:30 LELC 171130Z 05009KT 9999 -RA FEW018 FEW030TCU BKN054 18/16 Q1015 NOSIG
 
LERI - Alcantarilla(Sp-, Spain
Distacia desde Piles: SO 158km
Actu.: 17/11/2018 12:00
Few Clouds
Few Clouds
 Viento del NNE
Viento: NNE 2 km/h
Temperatura: 18°C
Rocío: 14°C
Humedad: 78%
Barómetro: 1016 hPa
Clouds: Few Clouds
Visibility: 10 km
Cloud details: Few Clouds 427 m
2018/11/17 11:00 LERI 171100Z 02001KT 9999 FEW014 18/14 Q1016 NOSIG
LEAB - Albacete (civ/Mi, Spain
Distacia desde Piles: O 160km
Actu.: 17/11/2018 12:00
Muy nuboso
Muy nuboso
 Viento del E
Viento: E 15 km/h
Temperatura: 14°C
Rocío: 10°C
Humedad: 77%
Barómetro: 1017 hPa
Clouds: Muy nuboso
Visibility: 10 km
Cloud details: Parcialmente nuboso 610 m
Muy nuboso 1219 m
2018/11/17 11:00 LEAB 171100Z 10008KT 070V130 9999 SCT020 BKN040 14/10 Q1017 NOSIG